Terminal Aerodrome Forecast
Issued by NWS Kansas City/Pleasant Hill, MO

Home | Current Version | Previous Version | Text Only | Print | Product List | Glossary On
Versions: 1 2 3 4 5 6 7 8 9 10 11 12 13 14 15
000
FTUS43 KEAX 202300
TAFMCI
TAF
KMCI 202331Z 2100/2124 18010KT P6SM FEW060
     FM210600 18011KT P6SM SCT150 WS020/23035KT
     FM211400 22015G23KT P6SM SCT070=

USA.gov is the U.S. government's official web portal to all federal, state and local government web resources and services.